»·PEaware :: BAW8833 EGLL-EIDW

BAW8833 :: EGLL-EIDW

FLIGHT INFORMATION

Flight Status: Arrived
Operator:
British Airways
More flights by this operator :: More flights under this callsign
Pilot: Cooper L. (8467)
Aircraft: BOEING 767-300
(B763)
More flights by this aircraft type
Origin: EGLL Heathrow
United Kingdom
Destination: EIDW Dublin Intl
Ireland
More flights between these airports :: More routes between these airports
Route: KERAV
File this flight plan on PilotEdge
Remarks:
Altitude:
(Current/Filed)
32,000ft
Speed:
(Current/Filed)
450kts
Departed: 29-Dec-15 11:10 PM
Arrived: 30-Dec-15 12:20 AM
Distance/Time
Traveled:
242nm/1:09
Distance/Time
To Go:
Arrived

Flight Plot

Page will automatically refresh every two minutes.


Map Options




Map Legend


Flown Route
Filed Route
Departure Airport
Arrival Airport
Navaid (VOR, NDB)
Fix

Horizontal Profiles

Position Reports

Time Latitude Longitude Heading Altitude Ground
Speed
29-Dec-15 22:57 51.473963 -0.477250 88 94ft 0kts
29-Dec-15 22:58 51.473884 -0.478303 44 94ft 2kts
29-Dec-15 22:59 51.473838 -0.478372 41 94ft 0kts
29-Dec-15 23:00 51.473838 -0.478372 41 94ft 0kts
29-Dec-15 23:01 51.473838 -0.478372 41 94ft 0kts
29-Dec-15 23:02 51.474884 -0.486051 269 94ft 29kts
29-Dec-15 23:03 51.475112 -0.489280 312 94ft 0kts
29-Dec-15 23:04 51.475147 -0.489334 316 94ft 1kts
29-Dec-15 23:05 51.477457 -0.489296 90 94ft 9kts
29-Dec-15 23:06 51.478418 -0.439925 94 1827ft 167kts
29-Dec-15 23:07 51.447154 -0.389574 197 3729ft 237kts
29-Dec-15 23:08 51.415998 -0.480409 255 5982ft 262kts
29-Dec-15 23:09 51.419149 -0.591604 277 5991ft 267kts
29-Dec-15 23:10 51.432628 -0.704299 279 5985ft 268kts
29-Dec-15 23:11 51.445860 -0.817272 278 5975ft 268kts
29-Dec-15 23:12 51.458001 -0.925536 278 5957ft 271kts
29-Dec-15 23:13 51.470146 -1.032023 277 5949ft 270kts
29-Dec-15 23:14 51.481972 -1.135021 275 5921ft 250kts
29-Dec-15 23:15 51.494432 -1.241861 276 6829ft 260kts
29-Dec-15 23:16 51.507779 -1.350645 280 10844ft 278kts
29-Dec-15 23:17 51.529095 -1.484329 293 13654ft 342kts
29-Dec-15 23:18 51.565720 -1.617340 292 17617ft 352kts
29-Dec-15 23:19 51.604740 -1.758890 292 21142ft 364kts
29-Dec-15 23:20 51.644226 -1.903075 291 24140ft 377kts
29-Dec-15 23:21 51.684495 -2.051091 291 26729ft 388kts
29-Dec-15 23:22 51.726242 -2.203665 290 29436ft 390kts
29-Dec-15 23:23 51.767241 -2.355894 289 32236ft 381kts
29-Dec-15 23:24 51.807413 -2.506900 289 32424ft 406kts
29-Dec-15 23:25 51.835083 -2.674628 280 32418ft 399kts
29-Dec-15 23:26 51.858314 -2.845912 280 32417ft 405kts
29-Dec-15 23:27 51.879062 -3.002386 280 32154ft 405kts
29-Dec-15 23:28 51.901912 -3.174456 280 31774ft 408kts
29-Dec-15 23:29 51.924657 -3.348277 280 31773ft 409kts
29-Dec-15 23:30 51.949579 -3.520432 289 31765ft 412kts
29-Dec-15 23:31 52.015725 -3.659101 307 31773ft 426kts
29-Dec-15 23:32 52.092431 -3.790200 307 31768ft 426kts
29-Dec-15 23:33 52.169622 -3.922135 307 31766ft 426kts
29-Dec-15 23:34 52.246318 -4.053843 307 31653ft 426kts
29-Dec-15 23:35 52.324856 -4.188112 307 31484ft 426kts
29-Dec-15 23:36 52.401837 -4.321165 307 31477ft 426kts
29-Dec-15 23:37 52.480764 -4.458879 307 31475ft 426kts
29-Dec-15 23:38 52.556243 -4.591144 306 30135ft 394kts
29-Dec-15 23:39 52.628093 -4.718211 307 27930ft 388kts
29-Dec-15 23:40 52.697437 -4.841121 307 26764ft 380kts
29-Dec-15 23:41 52.767327 -4.965494 309 25481ft 375kts
29-Dec-15 23:42 52.853882 -5.056472 325 23942ft 379kts
29-Dec-15 23:43 52.937550 -5.131752 331 22425ft 406kts
29-Dec-15 23:44 53.032706 -5.217081 331 20764ft 395kts
29-Dec-15 23:45 53.125497 -5.301407 331 19107ft 386kts
29-Dec-15 23:46 53.216140 -5.384227 331 17484ft 376kts
29-Dec-15 23:47 53.303392 -5.464330 331 15911ft 367kts
29-Dec-15 23:48 53.382964 -5.537707 331 14470ft 360kts
29-Dec-15 23:49 53.465799 -5.614427 331 12983ft 352kts
29-Dec-15 23:50 53.547564 -5.690494 331 11532ft 345kts
29-Dec-15 23:51 53.620511 -5.776690 302 10085ft 313kts
29-Dec-15 23:52 53.640213 -5.902055 278 8460ft 275kts
29-Dec-15 23:53 53.651860 -6.026250 277 7574ft 272kts
29-Dec-15 23:54 53.663016 -6.149100 276 6527ft 266kts
29-Dec-15 23:55 53.672731 -6.268263 262 5504ft 249kts
29-Dec-15 23:56 53.644120 -6.356940 235 4511ft 205kts
29-Dec-15 23:57 53.602440 -6.381332 161 3508ft 171kts
29-Dec-15 23:58 53.559436 -6.351173 161 2987ft 169kts
29-Dec-15 23:59 53.522192 -6.324494 161 2134ft 158kts
30-Dec-15 00:00 53.486595 -6.299123 165 1401ft 128kts
30-Dec-15 00:01 53.454045 -6.274434 166 610ft 127kts
30-Dec-15 00:02 53.427213 -6.255329 170 441ft 122kts
30-Dec-15 00:03 53.401954 -6.266273 315 729ft 144kts
30-Dec-15 00:04 53.434642 -6.294711 326 1655ft 174kts
30-Dec-15 00:05 53.478081 -6.330791 327 2577ft 175kts
30-Dec-15 00:06 53.507387 -6.306946 130 1121ft 145kts
30-Dec-15 00:07 53.474561 -6.286211 171 950ft 128kts
30-Dec-15 00:08 53.441364 -6.264986 163 413ft 128kts
30-Dec-15 00:09 53.405655 -6.243023 186 1908ft 161kts
30-Dec-15 00:10 53.409713 -6.306826 336 3098ft 232kts
30-Dec-15 00:11 53.458606 -6.337976 330 2569ft 161kts
30-Dec-15 00:12 53.499100 -6.364651 340 1177ft 150kts
30-Dec-15 00:13 53.506921 -6.312370 135 1293ft 141kts
30-Dec-15 00:14 53.474100 -6.289138 166 1076ft 130kts
30-Dec-15 00:15 53.442044 -6.265668 161 414ft 126kts
30-Dec-15 00:16 53.422480 -6.251250 139 253ft 37kts
30-Dec-15 00:17 53.423629 -6.247386 8 253ft 0kts
30-Dec-15 00:18 53.423629 -6.247386 8 253ft 0kts
30-Dec-15 00:19 53.423629 -6.247386 8 253ft 0kts
30-Dec-15 00:20 53.423629 -6.247386 8 253ft 0kts

Navigation Log

Ident Type
Flight plan parsing failed, navigation log unavailable